sensor_id;sensor_type;location;lat;lon;timestamp;temperature;humidity
68801;SHT31;55784;50.734;7.086;2023-02-24T00:00:00;7.65;92.07
68801;SHT31;55784;50.734;7.086;2023-02-24T00:02:45;7.62;91.88
68801;SHT31;55784;50.734;7.086;2023-02-24T00:05:11;7.63;91.76
68801;SHT31;55784;50.734;7.086;2023-02-24T00:07:36;7.61;91.79
68801;SHT31;55784;50.734;7.086;2023-02-24T00:10:01;7.63;91.82
68801;SHT31;55784;50.734;7.086;2023-02-24T00:12:27;7.61;92.15
68801;SHT31;55784;50.734;7.086;2023-02-24T00:14:52;7.61;92.32
68801;SHT31;55784;50.734;7.086;2023-02-24T00:17:17;7.65;91.93
68801;SHT31;55784;50.734;7.086;2023-02-24T00:19:45;7.67;92.41
68801;SHT31;55784;50.734;7.086;2023-02-24T00:22:11;7.72;92.39
68801;SHT31;55784;50.734;7.086;2023-02-24T00:24:39;7.73;92.32
68801;SHT31;55784;50.734;7.086;2023-02-24T00:27:05;7.76;92.26
68801;SHT31;55784;50.734;7.086;2023-02-24T00:29:36;7.82;92.17
68801;SHT31;55784;50.734;7.086;2023-02-24T00:32:02;7.84;92.06
68801;SHT31;55784;50.734;7.086;2023-02-24T00:34:32;7.82;91.90
68801;SHT31;55784;50.734;7.086;2023-02-24T00:36:59;7.76;91.74
68801;SHT31;55784;50.734;7.086;2023-02-24T00:39:26;7.66;91.45
68801;SHT31;55784;50.734;7.086;2023-02-24T00:41:56;7.55;91.69
68801;SHT31;55784;50.734;7.086;2023-02-24T00:44:33;7.49;92.12
68801;SHT31;55784;50.734;7.086;2023-02-24T00:46:58;7.41;92.47
68801;SHT31;55784;50.734;7.086;2023-02-24T00:49:25;7.43;92.38
68801;SHT31;55784;50.734;7.086;2023-02-24T00:51:50;7.49;92.39
68801;SHT31;55784;50.734;7.086;2023-02-24T00:54:19;7.51;92.43
68801;SHT31;55784;50.734;7.086;2023-02-24T00:56:46;7.48;92.35
68801;SHT31;55784;50.734;7.086;2023-02-24T00:59:14;7.51;92.34
68801;SHT31;55784;50.734;7.086;2023-02-24T01:01:41;7.48;92.28
68801;SHT31;55784;50.734;7.086;2023-02-24T01:04:08;7.51;92.42
68801;SHT31;55784;50.734;7.086;2023-02-24T01:06:39;7.51;92.37
68801;SHT31;55784;50.734;7.086;2023-02-24T01:09:06;7.48;92.52
68801;SHT31;55784;50.734;7.086;2023-02-24T01:11:37;7.48;92.61
68801;SHT31;55784;50.734;7.086;2023-02-24T01:14:25;7.51;92.58
68801;SHT31;55784;50.734;7.086;2023-02-24T01:16:51;7.46;92.75
68801;SHT31;55784;50.734;7.086;2023-02-24T01:19:17;7.52;92.82
68801;SHT31;55784;50.734;7.086;2023-02-24T01:21:43;7.46;92.97
68801;SHT31;55784;50.734;7.086;2023-02-24T01:24:10;7.49;93.10
68801;SHT31;55784;50.734;7.086;2023-02-24T01:26:36;7.43;93.40
68801;SHT31;55784;50.734;7.086;2023-02-24T01:29:02;7.39;93.90
68801;SHT31;55784;50.734;7.086;2023-02-24T01:31:33;7.38;93.98
68801;SHT31;55784;50.734;7.086;2023-02-24T01:33:59;7.32;94.16
68801;SHT31;55784;50.734;7.086;2023-02-24T01:36:31;7.32;94.41
68801;SHT31;55784;50.734;7.086;2023-02-24T01:38:58;7.36;94.42
68801;SHT31;55784;50.734;7.086;2023-02-24T01:41:24;7.33;94.62
68801;SHT31;55784;50.734;7.086;2023-02-24T01:46:39;7.21;94.97
68801;SHT31;55784;50.734;7.086;2023-02-24T01:49:17;7.21;94.78
68801;SHT31;55784;50.734;7.086;2023-02-24T01:51:57;7.21;94.81
68801;SHT31;55784;50.734;7.086;2023-02-24T01:54:30;7.14;94.55
68801;SHT31;55784;50.734;7.086;2023-02-24T01:56:57;7.11;93.89
68801;SHT31;55784;50.734;7.086;2023-02-24T01:59:25;7.07;93.58
68801;SHT31;55784;50.734;7.086;2023-02-24T02:01:54;7.12;92.99
68801;SHT31;55784;50.734;7.086;2023-02-24T02:04:49;7.09;92.13
68801;SHT31;55784;50.734;7.086;2023-02-24T02:07:17;7.12;92.57
68801;SHT31;55784;50.734;7.086;2023-02-24T02:09:44;7.16;91.68
68801;SHT31;55784;50.734;7.086;2023-02-24T02:12:11;7.11;91.57
68801;SHT31;55784;50.734;7.086;2023-02-24T02:14:39;7.08;91.42
68801;SHT31;55784;50.734;7.086;2023-02-24T02:17:54;7.05;91.35
68801;SHT31;55784;50.734;7.086;2023-02-24T02:26:28;7.02;90.33
68801;SHT31;55784;50.734;7.086;2023-02-24T02:32:08;7.00;88.98
68801;SHT31;55784;50.734;7.086;2023-02-24T02:34:55;6.84;88.61
68801;SHT31;55784;50.734;7.086;2023-02-24T02:38:01;6.84;88.65
68801;SHT31;55784;50.734;7.086;2023-02-24T02:43:37;6.81;88.90
68801;SHT31;55784;50.734;7.086;2023-02-24T02:46:11;6.84;89.09
68801;SHT31;55784;50.734;7.086;2023-02-24T02:48:50;6.81;88.95
68801;SHT31;55784;50.734;7.086;2023-02-24T02:51:23;6.76;88.55
68801;SHT31;55784;50.734;7.086;2023-02-24T02:56:43;6.73;89.01
68801;SHT31;55784;50.734;7.086;2023-02-24T02:59:12;6.67;88.38
68801;SHT31;55784;50.734;7.086;2023-02-24T03:01:41;6.63;88.75
68801;SHT31;55784;50.734;7.086;2023-02-24T03:04:10;6.61;88.58
68801;SHT31;55784;50.734;7.086;2023-02-24T03:06:46;6.66;88.99
68801;SHT31;55784;50.734;7.086;2023-02-24T03:09:20;6.64;88.77
68801;SHT31;55784;50.734;7.086;2023-02-24T03:11:51;6.66;88.64
68801;SHT31;55784;50.734;7.086;2023-02-24T03:14:23;6.63;88.53
68801;SHT31;55784;50.734;7.086;2023-02-24T03:16:51;6.57;88.81
68801;SHT31;55784;50.734;7.086;2023-02-24T03:19:20;6.61;88.74
68801;SHT31;55784;50.734;7.086;2023-02-24T03:22:07;6.61;88.95
68801;SHT31;55784;50.734;7.086;2023-02-24T03:24:36;6.57;89.39
68801;SHT31;55784;50.734;7.086;2023-02-24T03:27:18;6.58;89.29
68801;SHT31;55784;50.734;7.086;2023-02-24T03:30:01;6.58;89.40
68801;SHT31;55784;50.734;7.086;2023-02-24T03:32:37;6.58;90.44
68801;SHT31;55784;50.734;7.086;2023-02-24T03:35:15;6.53;91.60
68801;SHT31;55784;50.734;7.086;2023-02-24T03:37:43;6.54;91.91
68801;SHT31;55784;50.734;7.086;2023-02-24T03:40:11;6.54;92.22
68801;SHT31;55784;50.734;7.086;2023-02-24T03:43:17;6.53;92.41
68801;SHT31;55784;50.734;7.086;2023-02-24T03:45:41;6.39;92.70
68801;SHT31;55784;50.734;7.086;2023-02-24T03:48:07;6.43;92.55
68801;SHT31;55784;50.734;7.086;2023-02-24T03:50:34;6.39;92.42
68801;SHT31;55784;50.734;7.086;2023-02-24T04:04:09;6.34;89.94
68801;SHT31;55784;50.734;7.086;2023-02-24T04:06:45;6.30;89.12
68801;SHT31;55784;50.734;7.086;2023-02-24T04:14:30;6.25;89.45
68801;SHT31;55784;50.734;7.086;2023-02-24T04:17:02;6.25;89.08
68801;SHT31;55784;50.734;7.086;2023-02-24T04:19:34;6.26;89.39
68801;SHT31;55784;50.734;7.086;2023-02-24T04:22:04;6.22;90.34
68801;SHT31;55784;50.734;7.086;2023-02-24T04:24:31;6.27;90.73
68801;SHT31;55784;50.734;7.086;2023-02-24T04:27:00;6.26;90.62
68801;SHT31;55784;50.734;7.086;2023-02-24T04:29:27;6.17;90.68
68801;SHT31;55784;50.734;7.086;2023-02-24T04:32:02;6.15;90.97
68801;SHT31;55784;50.734;7.086;2023-02-24T04:34:29;6.17;90.57
68801;SHT31;55784;50.734;7.086;2023-02-24T04:36:57;6.09;90.75
68801;SHT31;55784;50.734;7.086;2023-02-24T04:39:24;6.12;90.93
68801;SHT31;55784;50.734;7.086;2023-02-24T04:41:49;6.09;90.84
68801;SHT31;55784;50.734;7.086;2023-02-24T04:44:16;6.03;91.23
68801;SHT31;55784;50.734;7.086;2023-02-24T04:46:43;6.08;91.19
68801;SHT31;55784;50.734;7.086;2023-02-24T04:49:09;6.01;90.26
68801;SHT31;55784;50.734;7.086;2023-02-24T04:51:35;5.99;90.21
68801;SHT31;55784;50.734;7.086;2023-02-24T04:54:00;5.99;90.32
68801;SHT31;55784;50.734;7.086;2023-02-24T04:56:28;5.88;90.47
68801;SHT31;55784;50.734;7.086;2023-02-24T04:58:53;5.99;90.42
68801;SHT31;55784;50.734;7.086;2023-02-24T05:01:18;5.89;90.02
68801;SHT31;55784;50.734;7.086;2023-02-24T05:03:44;5.82;90.19
68801;SHT31;55784;50.734;7.086;2023-02-24T05:06:15;5.86;90.43
68801;SHT31;55784;50.734;7.086;2023-02-24T05:08:42;5.85;90.64
68801;SHT31;55784;50.734;7.086;2023-02-24T05:11:12;5.81;90.22
68801;SHT31;55784;50.734;7.086;2023-02-24T05:13:41;5.79;90.24
68801;SHT31;55784;50.734;7.086;2023-02-24T05:16:11;5.82;90.26
68801;SHT31;55784;50.734;7.086;2023-02-24T05:18:38;5.71;90.22
68801;SHT31;55784;50.734;7.086;2023-02-24T05:21:12;5.71;90.36
68801;SHT31;55784;50.734;7.086;2023-02-24T05:23:57;5.72;90.22
68801;SHT31;55784;50.734;7.086;2023-02-24T05:26:33;5.66;90.49
68801;SHT31;55784;50.734;7.086;2023-02-24T05:29:00;5.61;90.73
68801;SHT31;55784;50.734;7.086;2023-02-24T05:31:28;5.64;90.75
68801;SHT31;55784;50.734;7.086;2023-02-24T05:34:00;5.62;90.66
68801;SHT31;55784;50.734;7.086;2023-02-24T05:36:30;5.62;90.92
68801;SHT31;55784;50.734;7.086;2023-02-24T05:38:56;5.62;90.66
68801;SHT31;55784;50.734;7.086;2023-02-24T05:41:38;5.58;90.55
68801;SHT31;55784;50.734;7.086;2023-02-24T05:44:11;5.55;90.48
68801;SHT31;55784;50.734;7.086;2023-02-24T05:46:40;5.52;90.51
68801;SHT31;55784;50.734;7.086;2023-02-24T05:49:12;5.45;89.75
68801;SHT31;55784;50.734;7.086;2023-02-24T05:51:38;5.44;89.77
68801;SHT31;55784;50.734;7.086;2023-02-24T05:54:09;5.44;89.71
68801;SHT31;55784;50.734;7.086;2023-02-24T05:56:39;5.47;89.89
68801;SHT31;55784;50.734;7.086;2023-02-24T05:59:07;5.51;90.06
68801;SHT31;55784;50.734;7.086;2023-02-24T06:01:34;5.48;89.60
68801;SHT31;55784;50.734;7.086;2023-02-24T06:04:04;5.48;89.69
68801;SHT31;55784;50.734;7.086;2023-02-24T06:06:37;5.54;89.81
68801;SHT31;55784;50.734;7.086;2023-02-24T06:09:06;5.58;88.80
68801;SHT31;55784;50.734;7.086;2023-02-24T06:11:34;5.61;89.17
68801;SHT31;55784;50.734;7.086;2023-02-24T06:14:00;5.55;89.10
68801;SHT31;55784;50.734;7.086;2023-02-24T06:16:26;5.56;89.07
68801;SHT31;55784;50.734;7.086;2023-02-24T06:18:51;5.66;88.81
68801;SHT31;55784;50.734;7.086;2023-02-24T06:21:17;5.64;88.52
68801;SHT31;55784;50.734;7.086;2023-02-24T06:23:43;5.62;88.05
68801;SHT31;55784;50.734;7.086;2023-02-24T06:26:09;5.54;87.89
68801;SHT31;55784;50.734;7.086;2023-02-24T06:28:40;5.56;87.60
68801;SHT31;55784;50.734;7.086;2023-02-24T06:31:08;5.58;86.70
68801;SHT31;55784;50.734;7.086;2023-02-24T06:33:35;5.56;87.14
68801;SHT31;55784;50.734;7.086;2023-02-24T06:36:01;5.56;86.26
68801;SHT31;55784;50.734;7.086;2023-02-24T06:38:29;5.59;86.18
68801;SHT31;55784;50.734;7.086;2023-02-24T06:40:59;5.61;86.00
68801;SHT31;55784;50.734;7.086;2023-02-24T06:43:28;5.64;85.57
68801;SHT31;55784;50.734;7.086;2023-02-24T06:45:54;5.66;84.86
68801;SHT31;55784;50.734;7.086;2023-02-24T06:48:19;5.64;84.90
68801;SHT31;55784;50.734;7.086;2023-02-24T06:50:47;5.65;84.69
68801;SHT31;55784;50.734;7.086;2023-02-24T06:53:14;5.69;84.36
68801;SHT31;55784;50.734;7.086;2023-02-24T06:55:44;5.76;83.98
68801;SHT31;55784;50.734;7.086;2023-02-24T06:58:18;5.78;83.84
68801;SHT31;55784;50.734;7.086;2023-02-24T07:00:45;5.81;84.92
68801;SHT31;55784;50.734;7.086;2023-02-24T07:03:21;5.81;84.37
68801;SHT31;55784;50.734;7.086;2023-02-24T07:05:51;5.84;84.74
68801;SHT31;55784;50.734;7.086;2023-02-24T07:08:36;5.84;84.42
68801;SHT31;55784;50.734;7.086;2023-02-24T07:11:01;5.88;84.67
68801;SHT31;55784;50.734;7.086;2023-02-24T07:13:31;5.95;84.11
68801;SHT31;55784;50.734;7.086;2023-02-24T07:15:59;5.86;83.80
68801;SHT31;55784;50.734;7.086;2023-02-24T07:18:28;5.88;83.62
68801;SHT31;55784;50.734;7.086;2023-02-24T07:20:55;5.91;82.97
68801;SHT31;55784;50.734;7.086;2023-02-24T07:23:20;5.94;84.20
68801;SHT31;55784;50.734;7.086;2023-02-24T07:25:45;5.95;83.67
68801;SHT31;55784;50.734;7.086;2023-02-24T07:28:17;6.06;83.23
68801;SHT31;55784;50.734;7.086;2023-02-24T07:30:43;6.19;82.79
68801;SHT31;55784;50.734;7.086;2023-02-24T07:33:08;6.27;82.16
68801;SHT31;55784;50.734;7.086;2023-02-24T07:35:34;6.20;82.01
68801;SHT31;55784;50.734;7.086;2023-02-24T07:38:01;6.23;81.30
68801;SHT31;55784;50.734;7.086;2023-02-24T07:40:32;6.26;81.37
68801;SHT31;55784;50.734;7.086;2023-02-24T07:42:59;6.25;81.75
68801;SHT31;55784;50.734;7.086;2023-02-24T07:45:24;6.15;81.00
68801;SHT31;55784;50.734;7.086;2023-02-24T07:47:50;6.27;81.49
68801;SHT31;55784;50.734;7.086;2023-02-24T07:50:15;6.30;81.00
68801;SHT31;55784;50.734;7.086;2023-02-24T07:52:45;6.29;80.51
68801;SHT31;55784;50.734;7.086;2023-02-24T07:55:12;6.32;80.15
68801;SHT31;55784;50.734;7.086;2023-02-24T07:57:40;6.30;79.87
68801;SHT31;55784;50.734;7.086;2023-02-24T08:00:13;6.17;80.33
68801;SHT31;55784;50.734;7.086;2023-02-24T08:02:48;6.15;79.83
68801;SHT31;55784;50.734;7.086;2023-02-24T08:05:17;6.13;81.33
68801;SHT31;55784;50.734;7.086;2023-02-24T08:07:44;6.17;81.63
68801;SHT31;55784;50.734;7.086;2023-02-24T08:10:20;6.30;80.95
68801;SHT31;55784;50.734;7.086;2023-02-24T08:12:49;6.27;81.09
68801;SHT31;55784;50.734;7.086;2023-02-24T08:15:22;6.29;79.24
68801;SHT31;55784;50.734;7.086;2023-02-24T08:17:49;6.25;79.60
68801;SHT31;55784;50.734;7.086;2023-02-24T08:20:17;6.32;79.68
68801;SHT31;55784;50.734;7.086;2023-02-24T08:22:44;6.36;79.52
68801;SHT31;55784;50.734;7.086;2023-02-24T08:25:17;6.33;77.50
68801;SHT31;55784;50.734;7.086;2023-02-24T08:27:44;6.39;77.20
68801;SHT31;55784;50.734;7.086;2023-02-24T08:30:11;6.46;77.57
68801;SHT31;55784;50.734;7.086;2023-02-24T08:32:49;6.60;77.87
68801;SHT31;55784;50.734;7.086;2023-02-24T08:35:22;6.57;78.95
68801;SHT31;55784;50.734;7.086;2023-02-24T08:37:52;6.67;78.33
68801;SHT31;55784;50.734;7.086;2023-02-24T08:40:25;6.63;78.36
68801;SHT31;55784;50.734;7.086;2023-02-24T08:43:10;6.60;78.38
68801;SHT31;55784;50.734;7.086;2023-02-24T08:45:49;6.80;78.64
68801;SHT31;55784;50.734;7.086;2023-02-24T08:48:21;6.79;78.16
68801;SHT31;55784;50.734;7.086;2023-02-24T08:51:00;6.73;77.47
68801;SHT31;55784;50.734;7.086;2023-02-24T08:53:26;6.80;76.65
68801;SHT31;55784;50.734;7.086;2023-02-24T08:55:57;6.73;76.18
68801;SHT31;55784;50.734;7.086;2023-02-24T08:58:37;6.73;76.49
68801;SHT31;55784;50.734;7.086;2023-02-24T09:01:05;6.79;76.73
68801;SHT31;55784;50.734;7.086;2023-02-24T09:03:42;6.87;76.44
68801;SHT31;55784;50.734;7.086;2023-02-24T09:06:10;6.94;76.90
68801;SHT31;55784;50.734;7.086;2023-02-24T09:08:38;7.04;76.89
68801;SHT31;55784;50.734;7.086;2023-02-24T09:11:11;6.85;77.14
68801;SHT31;55784;50.734;7.086;2023-02-24T09:13:43;7.07;77.00
68801;SHT31;55784;50.734;7.086;2023-02-24T09:16:20;7.05;76.96
68801;SHT31;55784;50.734;7.086;2023-02-24T09:18:47;7.14;77.63
68801;SHT31;55784;50.734;7.086;2023-02-24T09:21:33;7.38;76.47
68801;SHT31;55784;50.734;7.086;2023-02-24T09:24:17;7.63;77.26
68801;SHT31;55784;50.734;7.086;2023-02-24T09:26:53;7.84;75.77
68801;SHT31;55784;50.734;7.086;2023-02-24T09:29:25;7.59;74.68
68801;SHT31;55784;50.734;7.086;2023-02-24T09:32:02;7.53;74.94
68801;SHT31;55784;50.734;7.086;2023-02-24T09:34:38;7.42;74.48
68801;SHT31;55784;50.734;7.086;2023-02-24T09:37:12;7.39;74.63
68801;SHT31;55784;50.734;7.086;2023-02-24T09:39:52;7.58;74.01
68801;SHT31;55784;50.734;7.086;2023-02-24T09:42:25;7.46;73.73
68801;SHT31;55784;50.734;7.086;2023-02-24T09:44:56;7.76;73.73
68801;SHT31;55784;50.734;7.086;2023-02-24T09:47:38;7.75;73.22
68801;SHT31;55784;50.734;7.086;2023-02-24T09:52:43;7.53;73.80
68801;SHT31;55784;50.734;7.086;2023-02-24T09:55:37;7.55;74.34
68801;SHT31;55784;50.734;7.086;2023-02-24T10:00:55;7.11;74.58
68801;SHT31;55784;50.734;7.086;2023-02-24T10:03:32;7.08;74.67
68801;SHT31;55784;50.734;7.086;2023-02-24T10:06:24;6.98;74.58
68801;SHT31;55784;50.734;7.086;2023-02-24T10:11:16;7.00;74.92
68801;SHT31;55784;50.734;7.086;2023-02-24T10:14:01;6.98;75.63
68801;SHT31;55784;50.734;7.086;2023-02-24T10:16:31;7.08;74.59
68801;SHT31;55784;50.734;7.086;2023-02-24T10:19:26;7.09;75.09
68801;SHT31;55784;50.734;7.086;2023-02-24T10:24:40;7.43;74.51
68801;SHT31;55784;50.734;7.086;2023-02-24T10:27:20;7.61;74.58
68801;SHT31;55784;50.734;7.086;2023-02-24T10:32:56;7.42;73.87
68801;SHT31;55784;50.734;7.086;2023-02-24T10:35:27;7.31;74.18
68801;SHT31;55784;50.734;7.086;2023-02-24T10:37:58;7.35;73.82
68801;SHT31;55784;50.734;7.086;2023-02-24T10:40:33;7.49;73.81
68801;SHT31;55784;50.734;7.086;2023-02-24T10:43:16;7.52;74.07
68801;SHT31;55784;50.734;7.086;2023-02-24T10:45:44;7.63;73.37
68801;SHT31;55784;50.734;7.086;2023-02-24T10:48:22;7.65;73.78
68801;SHT31;55784;50.734;7.086;2023-02-24T10:50:53;7.62;73.09
68801;SHT31;55784;50.734;7.086;2023-02-24T10:53:33;7.69;73.18
68801;SHT31;55784;50.734;7.086;2023-02-24T10:56:06;7.76;72.95
68801;SHT31;55784;50.734;7.086;2023-02-24T10:59:14;7.52;74.09
68801;SHT31;55784;50.734;7.086;2023-02-24T11:02:07;7.70;73.50
68801;SHT31;55784;50.734;7.086;2023-02-24T11:04:51;7.55;72.68
68801;SHT31;55784;50.734;7.086;2023-02-24T11:07:23;7.53;72.75
68801;SHT31;55784;50.734;7.086;2023-02-24T11:12:45;7.41;73.83
68801;SHT31;55784;50.734;7.086;2023-02-24T11:15:45;7.45;73.78
68801;SHT31;55784;50.734;7.086;2023-02-24T11:18:31;7.35;73.86
68801;SHT31;55784;50.734;7.086;2023-02-24T11:20:59;7.49;73.49
68801;SHT31;55784;50.734;7.086;2023-02-24T11:23:52;7.51;72.84
68801;SHT31;55784;50.734;7.086;2023-02-24T11:26:24;7.49;73.47
68801;SHT31;55784;50.734;7.086;2023-02-24T11:34:22;7.39;73.46
68801;SHT31;55784;50.734;7.086;2023-02-24T11:41:58;7.33;73.48
68801;SHT31;55784;50.734;7.086;2023-02-24T11:44:40;7.35;73.16
68801;SHT31;55784;50.734;7.086;2023-02-24T11:47:14;7.31;72.30
68801;SHT31;55784;50.734;7.086;2023-02-24T11:49:48;7.07;73.19
68801;SHT31;55784;50.734;7.086;2023-02-24T11:52:34;6.92;73.54
68801;SHT31;55784;50.734;7.086;2023-02-24T11:55:04;7.04;73.20
68801;SHT31;55784;50.734;7.086;2023-02-24T11:57:42;7.05;73.45
68801;SHT31;55784;50.734;7.086;2023-02-24T12:00:13;7.07;73.05
68801;SHT31;55784;50.734;7.086;2023-02-24T12:02:48;7.08;72.67
68801;SHT31;55784;50.734;7.086;2023-02-24T12:05:18;7.01;72.35
68801;SHT31;55784;50.734;7.086;2023-02-24T12:07:49;7.07;72.17
68801;SHT31;55784;50.734;7.086;2023-02-24T12:10:28;7.14;72.37
68801;SHT31;55784;50.734;7.086;2023-02-24T12:13:09;7.15;72.68
68801;SHT31;55784;50.734;7.086;2023-02-24T12:18:48;7.00;72.06
68801;SHT31;55784;50.734;7.086;2023-02-24T12:21:23;6.83;72.03
68801;SHT31;55784;50.734;7.086;2023-02-24T12:23:55;6.77;72.32
68801;SHT31;55784;50.734;7.086;2023-02-24T12:26:32;6.71;72.46
68801;SHT31;55784;50.734;7.086;2023-02-24T12:29:46;6.71;72.33
68801;SHT31;55784;50.734;7.086;2023-02-24T12:43:04;6.91;72.95
68801;SHT31;55784;50.734;7.086;2023-02-24T12:49:21;6.70;74.20
68801;SHT31;55784;50.734;7.086;2023-02-24T12:55:09;6.47;74.72
68801;SHT31;55784;50.734;7.086;2023-02-24T13:00:17;6.67;76.38
68801;SHT31;55784;50.734;7.086;2023-02-24T13:03:20;6.61;75.15
68801;SHT31;55784;50.734;7.086;2023-02-24T13:05:50;6.61;75.27
68801;SHT31;55784;50.734;7.086;2023-02-24T13:08:57;6.43;76.08
68801;SHT31;55784;50.734;7.086;2023-02-24T13:17:04;6.41;77.60
68801;SHT31;55784;50.734;7.086;2023-02-24T13:19:30;6.47;78.68
68801;SHT31;55784;50.734;7.086;2023-02-24T13:27:25;6.61;78.19
68801;SHT31;55784;50.734;7.086;2023-02-24T13:29:53;6.73;79.67
68801;SHT31;55784;50.734;7.086;2023-02-24T13:34:54;6.71;78.66
68801;SHT31;55784;50.734;7.086;2023-02-24T13:37:28;6.84;78.95
68801;SHT31;55784;50.734;7.086;2023-02-24T13:39:54;6.81;78.61
68801;SHT31;55784;50.734;7.086;2023-02-24T13:42:24;6.73;79.36
68801;SHT31;55784;50.734;7.086;2023-02-24T13:47:33;6.58;81.16
68801;SHT31;55784;50.734;7.086;2023-02-24T13:50:23;6.63;81.17
68801;SHT31;55784;50.734;7.086;2023-02-24T13:53:12;6.67;80.41
68801;SHT31;55784;50.734;7.086;2023-02-24T14:01:14;6.70;80.76
68801;SHT31;55784;50.734;7.086;2023-02-24T14:03:43;6.80;81.71
68801;SHT31;55784;50.734;7.086;2023-02-24T14:06:24;6.77;81.03
68801;SHT31;55784;50.734;7.086;2023-02-24T14:08:58;6.64;80.80
68801;SHT31;55784;50.734;7.086;2023-02-24T14:11:28;6.74;80.20
68801;SHT31;55784;50.734;7.086;2023-02-24T14:13:56;6.81;81.57
68801;SHT31;55784;50.734;7.086;2023-02-24T14:16:25;6.88;81.39
68801;SHT31;55784;50.734;7.086;2023-02-24T14:21:21;6.90;81.63
68801;SHT31;55784;50.734;7.086;2023-02-24T14:23:57;6.79;81.29
68801;SHT31;55784;50.734;7.086;2023-02-24T14:26:23;6.79;81.95
68801;SHT31;55784;50.734;7.086;2023-02-24T14:28:59;6.56;81.45
68801;SHT31;55784;50.734;7.086;2023-02-24T14:31:25;6.57;81.93
68801;SHT31;55784;50.734;7.086;2023-02-24T14:33:59;6.43;81.75
68801;SHT31;55784;50.734;7.086;2023-02-24T14:36:28;6.47;82.91
68801;SHT31;55784;50.734;7.086;2023-02-24T14:39:47;6.58;82.85
68801;SHT31;55784;50.734;7.086;2023-02-24T14:42:03;6.66;82.60
68801;SHT31;55784;50.734;7.086;2023-02-24T14:44:44;6.54;82.93
68801;SHT31;55784;50.734;7.086;2023-02-24T14:47:12;6.51;82.76
68801;SHT31;55784;50.734;7.086;2023-02-24T14:49:50;6.44;83.14
68801;SHT31;55784;50.734;7.086;2023-02-24T14:52:41;6.44;82.91
68801;SHT31;55784;50.734;7.086;2023-02-24T14:55:21;6.37;84.31
68801;SHT31;55784;50.734;7.086;2023-02-24T14:57:54;6.26;84.20
68801;SHT31;55784;50.734;7.086;2023-02-24T15:00:26;6.29;83.72
68801;SHT31;55784;50.734;7.086;2023-02-24T15:03:10;6.23;84.42
68801;SHT31;55784;50.734;7.086;2023-02-24T15:05:46;6.33;84.66
68801;SHT31;55784;50.734;7.086;2023-02-24T15:08:39;6.43;84.56
68801;SHT31;55784;50.734;7.086;2023-02-24T15:13:52;6.34;85.25
68801;SHT31;55784;50.734;7.086;2023-02-24T15:16:24;6.36;85.28
68801;SHT31;55784;50.734;7.086;2023-02-24T15:18:52;6.37;85.00
68801;SHT31;55784;50.734;7.086;2023-02-24T15:21:27;6.40;84.77
68801;SHT31;55784;50.734;7.086;2023-02-24T15:24:15;6.32;85.74
68801;SHT31;55784;50.734;7.086;2023-02-24T15:26:40;6.34;85.52
68801;SHT31;55784;50.734;7.086;2023-02-24T15:29:20;6.27;85.74
68801;SHT31;55784;50.734;7.086;2023-02-24T15:31:50;6.32;86.02
68801;SHT31;55784;50.734;7.086;2023-02-24T15:34:18;6.37;86.16
68801;SHT31;55784;50.734;7.086;2023-02-24T15:36:44;6.46;86.36
68801;SHT31;55784;50.734;7.086;2023-02-24T15:39:17;6.36;85.71
68801;SHT31;55784;50.734;7.086;2023-02-24T15:41:46;6.37;86.43
68801;SHT31;55784;50.734;7.086;2023-02-24T15:44:56;6.25;85.52
68801;SHT31;55784;50.734;7.086;2023-02-24T15:47:23;6.17;86.11
68801;SHT31;55784;50.734;7.086;2023-02-24T15:49:49;6.13;86.09
68801;SHT31;55784;50.734;7.086;2023-02-24T15:52:27;6.02;86.31
68801;SHT31;55784;50.734;7.086;2023-02-24T15:54:54;6.06;87.37
68801;SHT31;55784;50.734;7.086;2023-02-24T15:57:23;6.12;87.25
68801;SHT31;55784;50.734;7.086;2023-02-24T15:59:49;6.05;86.92
68801;SHT31;55784;50.734;7.086;2023-02-24T16:02:17;6.03;87.84
68801;SHT31;55784;50.734;7.086;2023-02-24T16:04:44;6.12;88.02
68801;SHT31;55784;50.734;7.086;2023-02-24T16:07:36;6.03;87.22
68801;SHT31;55784;50.734;7.086;2023-02-24T16:10:02;6.05;87.42
68801;SHT31;55784;50.734;7.086;2023-02-24T16:12:35;6.05;87.71
68801;SHT31;55784;50.734;7.086;2023-02-24T16:15:13;6.06;87.11
68801;SHT31;55784;50.734;7.086;2023-02-24T16:17:41;6.05;87.62
68801;SHT31;55784;50.734;7.086;2023-02-24T16:20:16;6.08;87.59
68801;SHT31;55784;50.734;7.086;2023-02-24T16:22:42;6.10;88.15
68801;SHT31;55784;50.734;7.086;2023-02-24T16:25:07;6.13;87.96
68801;SHT31;55784;50.734;7.086;2023-02-24T16:27:33;6.12;88.34
68801;SHT31;55784;50.734;7.086;2023-02-24T16:29:59;6.10;87.56
68801;SHT31;55784;50.734;7.086;2023-02-24T16:32:25;6.02;87.44
68801;SHT31;55784;50.734;7.086;2023-02-24T16:34:53;6.02;87.50
68801;SHT31;55784;50.734;7.086;2023-02-24T16:37:22;6.08;87.84
68801;SHT31;55784;50.734;7.086;2023-02-24T16:39:48;5.99;87.81
68801;SHT31;55784;50.734;7.086;2023-02-24T16:42:15;5.99;87.86
68801;SHT31;55784;50.734;7.086;2023-02-24T16:44:41;5.98;87.93
68801;SHT31;55784;50.734;7.086;2023-02-24T16:47:11;6.01;88.13
68801;SHT31;55784;50.734;7.086;2023-02-24T16:49:38;5.95;87.76
68801;SHT31;55784;50.734;7.086;2023-02-24T16:52:04;5.92;87.65
68801;SHT31;55784;50.734;7.086;2023-02-24T16:54:29;5.99;88.23
68801;SHT31;55784;50.734;7.086;2023-02-24T16:56:55;5.96;87.41
68801;SHT31;55784;50.734;7.086;2023-02-24T16:59:20;5.95;87.81
68801;SHT31;55784;50.734;7.086;2023-02-24T17:01:46;6.03;88.36
68801;SHT31;55784;50.734;7.086;2023-02-24T17:04:12;6.02;87.57
68801;SHT31;55784;50.734;7.086;2023-02-24T17:06:39;6.03;88.03
68801;SHT31;55784;50.734;7.086;2023-02-24T17:09:04;5.99;87.33
68801;SHT31;55784;50.734;7.086;2023-02-24T17:11:30;5.99;88.38
68801;SHT31;55784;50.734;7.086;2023-02-24T17:13:55;5.99;87.65
68801;SHT31;55784;50.734;7.086;2023-02-24T17:16:21;5.91;87.50
68801;SHT31;55784;50.734;7.086;2023-02-24T17:18:46;5.86;88.70
68801;SHT31;55784;50.734;7.086;2023-02-24T17:21:12;5.79;88.50
68801;SHT31;55784;50.734;7.086;2023-02-24T17:23:38;5.84;88.96
68801;SHT31;55784;50.734;7.086;2023-02-24T17:26:04;5.94;88.77
68801;SHT31;55784;50.734;7.086;2023-02-24T17:28:30;5.96;88.44
68801;SHT31;55784;50.734;7.086;2023-02-24T17:30:55;6.01;88.47
68801;SHT31;55784;50.734;7.086;2023-02-24T17:33:21;6.03;88.12
68801;SHT31;55784;50.734;7.086;2023-02-24T17:35:47;6.05;88.36
68801;SHT31;55784;50.734;7.086;2023-02-24T17:38:17;6.05;88.99
68801;SHT31;55784;50.734;7.086;2023-02-24T17:40:46;6.02;88.91
68801;SHT31;55784;50.734;7.086;2023-02-24T17:43:12;5.98;89.13
68801;SHT31;55784;50.734;7.086;2023-02-24T17:45:40;5.96;88.98
68801;SHT31;55784;50.734;7.086;2023-02-24T17:48:08;5.96;89.56
68801;SHT31;55784;50.734;7.086;2023-02-24T17:50:34;6.01;90.00
68801;SHT31;55784;50.734;7.086;2023-02-24T17:52:59;5.99;89.98
68801;SHT31;55784;50.734;7.086;2023-02-24T17:55:25;6.02;91.00
68801;SHT31;55784;50.734;7.086;2023-02-24T17:57:50;5.95;90.69
68801;SHT31;55784;50.734;7.086;2023-02-24T18:00:16;5.89;90.85
68801;SHT31;55784;50.734;7.086;2023-02-24T18:02:42;5.78;90.94
68801;SHT31;55784;50.734;7.086;2023-02-24T18:05:30;5.78;91.40